createdAt,value
2018-09-18T00:00:09.790Z,6.17
2018-09-18T00:02:37.252Z,6.40
2018-09-18T00:05:04.727Z,7.97
2018-09-18T00:07:32.127Z,10.90
2018-09-18T00:09:59.561Z,10.93
2018-09-18T00:12:27.258Z,9.67
2018-09-18T00:14:54.722Z,12.00
2018-09-18T00:17:22.201Z,10.27
2018-09-18T00:19:49.621Z,12.17
2018-09-18T00:22:17.068Z,11.37
2018-09-18T00:24:44.569Z,12.37
2018-09-18T00:27:12.013Z,11.77
2018-09-18T00:29:39.474Z,13.10
2018-09-18T00:32:06.961Z,14.93
2018-09-18T00:34:34.394Z,13.23
2018-09-18T00:37:01.848Z,15.63
2018-09-18T00:39:29.296Z,14.60
2018-09-18T00:41:56.698Z,14.87
2018-09-18T00:44:24.131Z,16.30
2018-09-18T00:46:51.550Z,14.07
2018-09-18T00:49:18.966Z,14.13
2018-09-18T00:51:46.480Z,16.63
2018-09-18T00:54:13.895Z,13.77
2018-09-18T00:56:41.315Z,15.03
2018-09-18T00:59:08.770Z,16.07
2018-09-18T01:01:36.168Z,16.20
2018-09-18T01:04:03.640Z,19.57
2018-09-18T01:06:31.056Z,18.13
2018-09-18T01:08:58.473Z,18.90
2018-09-18T01:11:25.941Z,20.40
2018-09-18T01:13:53.481Z,18.40
2018-09-18T01:16:21.009Z,17.30
2018-09-18T01:18:48.432Z,16.07
2018-09-18T01:21:15.876Z,14.07
2018-09-18T01:23:43.416Z,15.83
2018-09-18T01:26:10.805Z,16.77
2018-09-18T01:28:38.268Z,17.53
2018-09-18T01:31:05.825Z,16.87
2018-09-18T01:33:33.452Z,17.57
2018-09-18T01:36:01.020Z,18.77
2018-09-18T01:38:28.401Z,17.80
2018-09-18T01:40:55.797Z,19.20
2018-09-18T01:43:23.221Z,17.43
2018-09-18T01:45:50.916Z,19.53
2018-09-18T01:48:18.352Z,18.67
2018-09-18T01:50:45.780Z,21.40
2018-09-18T01:53:13.240Z,19.83
2018-09-18T01:55:40.658Z,17.47
2018-09-18T01:58:08.164Z,16.77
2018-09-18T02:00:35.596Z,16.63
2018-09-18T02:03:03.013Z,17.60
2018-09-18T02:05:30.432Z,16.03
2018-09-18T02:07:57.867Z,18.97
2018-09-18T02:10:25.396Z,16.67
2018-09-18T02:12:52.845Z,14.93
2018-09-18T02:15:20.270Z,14.93
2018-09-18T02:17:47.699Z,17.00
2018-09-18T02:20:15.177Z,16.13
2018-09-18T02:22:42.654Z,18.50
2018-09-18T02:25:10.088Z,19.07
2018-09-18T02:27:37.545Z,17.80
2018-09-18T02:30:05.128Z,17.33
2018-09-18T02:32:32.592Z,22.27
2018-09-18T02:35:00.045Z,22.10
2018-09-18T02:37:27.536Z,24.43
2018-09-18T02:39:54.969Z,21.87
2018-09-18T02:42:22.423Z,19.03
2018-09-18T02:44:50.186Z,15.63
2018-09-18T02:47:18.012Z,15.93
2018-09-18T02:49:45.505Z,17.73
2018-09-18T02:52:12.994Z,16.87
2018-09-18T02:54:40.396Z,17.10
2018-09-18T02:57:07.865Z,17.83
2018-09-18T02:59:35.273Z,17.17
2018-09-18T03:02:02.765Z,17.30
2018-09-18T03:04:30.291Z,19.10
2018-09-18T03:06:57.712Z,17.93
2018-09-18T03:09:25.192Z,18.63
2018-09-18T03:11:52.589Z,18.83
2018-09-18T03:14:20.003Z,17.67
2018-09-18T03:16:47.438Z,16.67
2018-09-18T03:19:14.845Z,16.70
2018-09-18T03:21:42.328Z,17.37
2018-09-18T03:24:09.775Z,16.60
2018-09-18T03:26:37.188Z,17.57
2018-09-18T03:29:04.673Z,17.33
2018-09-18T03:31:32.119Z,16.43
2018-09-18T03:33:59.682Z,15.73
2018-09-18T03:36:27.104Z,14.10
2018-09-18T03:38:54.510Z,13.10
2018-09-18T03:41:21.979Z,12.80
2018-09-18T03:43:49.400Z,12.60
2018-09-18T03:46:16.836Z,12.67
2018-09-18T03:48:44.229Z,12.80
2018-09-18T03:51:11.636Z,12.70
2018-09-18T03:53:39.153Z,11.20
2018-09-18T03:56:06.935Z,12.10
2018-09-18T03:58:34.353Z,13.60
2018-09-18T04:01:01.872Z,13.33
2018-09-18T04:03:29.305Z,13.63
2018-09-18T04:05:56.737Z,12.00
2018-09-18T04:08:24.196Z,12.33
2018-09-18T04:10:51.610Z,14.07
2018-09-18T04:13:19.017Z,12.47
2018-09-18T04:15:46.465Z,11.27
2018-09-18T04:18:16.755Z,11.93
2018-09-18T04:20:44.197Z,12.00
2018-09-18T04:23:11.605Z,12.37
2018-09-18T04:25:39.096Z,11.77
2018-09-18T04:28:06.642Z,10.60
2018-09-18T04:30:34.079Z,11.03
2018-09-18T04:33:01.630Z,11.50
2018-09-18T04:35:29.071Z,10.60
2018-09-18T04:37:56.515Z,10.27
2018-09-18T04:40:24.030Z,10.33
2018-09-18T04:42:51.448Z,9.47
2018-09-18T04:45:18.994Z,9.47
2018-09-18T04:47:46.401Z,8.70
2018-09-18T04:50:13.873Z,9.30
2018-09-18T04:52:41.346Z,9.13
2018-09-18T04:55:08.809Z,9.90
2018-09-18T04:57:36.246Z,8.77
2018-09-18T05:00:04.760Z,8.60
2018-09-18T05:02:32.206Z,9.47
2018-09-18T05:04:59.717Z,9.20
2018-09-18T05:07:27.210Z,9.43
2018-09-18T05:09:54.735Z,10.10
2018-09-18T05:12:22.170Z,10.27
2018-09-18T05:14:49.560Z,8.33
2018-09-18T05:17:16.984Z,9.43
2018-09-18T05:19:44.391Z,8.50
2018-09-18T05:22:11.868Z,8.53
2018-09-18T05:24:39.242Z,9.17
2018-09-18T05:27:06.631Z,9.73
2018-09-18T05:29:34.152Z,9.47
2018-09-18T05:32:01.550Z,8.80
2018-09-18T05:34:28.965Z,7.97
2018-09-18T05:36:56.456Z,7.83
2018-09-18T05:39:23.876Z,7.97
2018-09-18T05:41:51.337Z,9.30
2018-09-18T05:44:18.848Z,8.97
2018-09-18T05:46:46.281Z,10.10
2018-09-18T05:49:13.737Z,9.23
2018-09-18T05:51:41.401Z,9.60
2018-09-18T05:54:08.814Z,9.63
2018-09-18T05:56:36.225Z,9.00
2018-09-18T05:59:03.669Z,9.30
2018-09-18T06:01:31.076Z,9.80
2018-09-18T06:03:58.450Z,8.93
2018-09-18T06:06:25.888Z,9.70
2018-09-18T06:08:53.342Z,8.20
2018-09-18T06:11:20.736Z,8.63
2018-09-18T06:13:48.173Z,7.67
2018-09-18T06:16:15.616Z,8.27
2018-09-18T06:18:43.060Z,8.53
2018-09-18T06:21:10.515Z,6.97
2018-09-18T06:23:38.082Z,7.63
2018-09-18T06:26:05.555Z,7.37
2018-09-18T06:28:32.933Z,7.50
2018-09-18T06:31:00.409Z,6.53
2018-09-18T06:33:27.822Z,6.20
2018-09-18T06:35:55.329Z,6.60
2018-09-18T06:38:22.737Z,6.17
2018-09-18T06:40:50.166Z,6.10
2018-09-18T06:43:18.160Z,6.03
2018-09-18T06:45:45.593Z,5.90
2018-09-18T06:48:13.101Z,6.20
2018-09-18T06:50:40.579Z,6.23
2018-09-18T06:53:08.094Z,5.77
2018-09-18T06:55:35.532Z,5.97
2018-09-18T06:58:02.998Z,4.90
2018-09-18T07:00:30.462Z,5.80
2018-09-18T07:02:57.877Z,5.53
2018-09-18T07:05:25.276Z,5.20
2018-09-18T07:07:52.697Z,5.73
2018-09-18T07:10:20.085Z,5.03
2018-09-18T07:12:47.563Z,4.90
2018-09-18T07:15:14.991Z,4.77
2018-09-18T07:17:42.408Z,4.90
2018-09-18T07:20:09.869Z,4.10
2018-09-18T07:22:37.312Z,4.40
2018-09-18T07:25:04.766Z,4.00
2018-09-18T07:27:32.589Z,4.13
2018-09-18T07:29:59.968Z,3.80
2018-09-18T07:32:27.341Z,3.60
2018-09-18T07:34:54.774Z,3.70
2018-09-18T07:37:22.194Z,3.43
2018-09-18T07:39:49.714Z,3.70
2018-09-18T07:42:17.146Z,3.53
2018-09-18T07:44:44.588Z,3.17
2018-09-18T07:47:11.973Z,3.20
2018-09-18T07:49:39.429Z,3.10
2018-09-18T07:52:06.923Z,2.90
2018-09-18T07:54:34.332Z,2.90
2018-09-18T07:57:01.741Z,3.20
2018-09-18T07:59:29.174Z,3.00
2018-09-18T08:01:56.582Z,3.20
2018-09-18T08:04:24.049Z,3.23
2018-09-18T08:06:51.514Z,2.93
2018-09-18T08:09:18.949Z,3.33
2018-09-18T08:11:46.413Z,2.57
2018-09-18T08:14:13.889Z,3.37
2018-09-18T08:16:41.294Z,3.00
2018-09-18T08:19:08.770Z,2.73
2018-09-18T08:21:36.177Z,2.53
2018-09-18T08:24:03.898Z,2.80
2018-09-18T08:26:31.337Z,2.40
2018-09-18T08:28:59.238Z,2.77
2018-09-18T08:31:26.741Z,2.60
2018-09-18T08:33:54.184Z,2.57
2018-09-18T08:36:21.612Z,2.80
2018-09-18T08:38:49.018Z,2.60
2018-09-18T08:41:16.509Z,2.50
2018-09-18T08:43:43.944Z,2.33
2018-09-18T08:46:11.465Z,2.70
2018-09-18T08:48:43.533Z,2.67
2018-09-18T08:51:10.972Z,2.53
2018-09-18T08:53:38.391Z,2.50
2018-09-18T08:56:06.102Z,2.27
2018-09-18T08:58:33.619Z,2.60
2018-09-18T09:01:01.132Z,2.80
2018-09-18T09:03:28.564Z,2.40
2018-09-18T09:05:56.149Z,2.20
2018-09-18T09:08:23.551Z,2.87
2018-09-18T09:10:50.990Z,2.40
2018-09-18T09:13:18.449Z,2.63
2018-09-18T09:15:45.929Z,2.70
2018-09-18T09:18:13.410Z,2.50
2018-09-18T09:20:40.824Z,2.60
2018-09-18T09:23:08.476Z,2.30
2018-09-18T09:25:35.737Z,2.60
2018-09-18T09:28:03.297Z,2.60
2018-09-18T09:30:30.664Z,2.60
2018-09-18T09:32:58.076Z,2.70
2018-09-18T09:35:25.573Z,2.77
2018-09-18T09:37:53.010Z,2.33
2018-09-18T09:40:20.408Z,2.87
2018-09-18T09:42:47.864Z,2.30
2018-09-18T09:45:15.376Z,2.90
2018-09-18T09:47:42.773Z,3.00
2018-09-18T09:50:10.178Z,2.57
2018-09-18T09:52:37.614Z,2.90
2018-09-18T09:55:05.052Z,2.70
2018-09-18T09:57:32.463Z,2.90
2018-09-18T09:59:59.897Z,2.73
2018-09-18T10:02:29.326Z,2.80
2018-09-18T10:04:57.239Z,3.23
2018-09-18T10:07:24.806Z,3.03
2018-09-18T10:09:52.265Z,2.77
2018-09-18T10:12:19.710Z,3.00
2018-09-18T10:14:47.163Z,3.30
2018-09-18T10:17:14.661Z,3.23
2018-09-18T10:19:42.075Z,3.37
2018-09-18T10:22:09.522Z,3.30
2018-09-18T10:24:36.945Z,3.00
2018-09-18T10:27:04.639Z,2.93
2018-09-18T10:29:32.007Z,3.40
2018-09-18T10:31:59.907Z,2.80
2018-09-18T10:34:27.461Z,3.00
2018-09-18T10:36:54.944Z,2.60
2018-09-18T10:39:22.431Z,3.30
2018-09-18T10:41:49.953Z,3.93
2018-09-18T10:44:17.413Z,3.10
2018-09-18T10:46:44.838Z,3.00
2018-09-18T10:49:12.313Z,2.80
2018-09-18T10:51:39.798Z,2.73
2018-09-18T10:54:07.258Z,3.00
2018-09-18T10:56:34.791Z,2.97
2018-09-18T10:59:02.317Z,2.77
2018-09-18T11:01:29.786Z,2.70
2018-09-18T11:03:57.220Z,2.90
2018-09-18T11:06:24.660Z,2.90
2018-09-18T11:08:52.241Z,2.77
2018-09-18T11:11:19.815Z,2.93
2018-09-18T11:13:47.246Z,2.90
2018-09-18T11:16:14.783Z,2.60
2018-09-18T11:18:42.166Z,3.00
2018-09-18T11:21:09.651Z,2.80
2018-09-18T11:23:37.119Z,2.73
2018-09-18T11:26:04.624Z,2.80
2018-09-18T11:28:32.092Z,2.90
2018-09-18T11:30:59.534Z,3.00
2018-09-18T11:33:26.964Z,2.50
2018-09-18T11:35:55.353Z,2.50
2018-09-18T11:38:22.789Z,2.80
2018-09-18T11:40:50.220Z,2.93
2018-09-18T11:43:17.657Z,2.87
2018-09-18T11:45:45.171Z,2.60
2018-09-18T11:48:12.614Z,2.83
2018-09-18T11:50:40.097Z,2.73
2018-09-18T11:53:07.533Z,2.50
2018-09-18T11:55:35.030Z,2.80
2018-09-18T11:58:02.481Z,2.70
2018-09-18T12:00:30.114Z,2.70
2018-09-18T12:02:57.587Z,2.90
2018-09-18T12:05:24.989Z,2.60
2018-09-18T12:07:52.433Z,3.10
2018-09-18T12:10:19.870Z,2.40
2018-09-18T12:12:47.380Z,2.40
2018-09-18T12:15:14.837Z,2.70
2018-09-18T12:17:42.259Z,2.70
2018-09-18T12:20:09.807Z,2.63
2018-09-18T12:22:37.333Z,3.13
2018-09-18T12:25:04.754Z,2.80
2018-09-18T12:27:32.219Z,2.87
2018-09-18T12:29:59.601Z,2.70
2018-09-18T12:32:27.117Z,3.10
2018-09-18T12:34:54.551Z,2.40
2018-09-18T12:37:21.913Z,2.87
2018-09-18T12:39:49.420Z,2.67
2018-09-18T12:42:17.082Z,2.70
2018-09-18T12:44:44.506Z,2.40
2018-09-18T12:47:11.945Z,2.67
2018-09-18T12:49:39.551Z,2.53
2018-09-18T12:52:06.936Z,2.80
2018-09-18T12:54:34.369Z,2.70
2018-09-18T12:57:02.502Z,2.67
2018-09-18T12:59:29.893Z,2.70
2018-09-18T13:01:57.575Z,2.60
2018-09-18T13:04:25.045Z,2.70
2018-09-18T13:06:52.505Z,2.57
2018-09-18T13:09:19.945Z,2.60
2018-09-18T13:11:47.385Z,2.47
2018-09-18T13:14:15.014Z,2.50
2018-09-18T13:16:42.273Z,2.47
2018-09-18T13:19:09.691Z,2.60
2018-09-18T13:21:37.279Z,2.50
2018-09-18T13:24:04.807Z,2.80
2018-09-18T13:26:32.366Z,2.50
2018-09-18T13:28:59.837Z,2.50
2018-09-18T13:31:27.417Z,2.50
2018-09-18T13:33:54.841Z,2.47
2018-09-18T13:36:22.300Z,2.80
2018-09-18T13:38:49.693Z,2.60
2018-09-18T13:41:17.203Z,2.50
2018-09-18T13:43:44.602Z,2.90
2018-09-18T13:46:12.118Z,2.83
2018-09-18T13:48:39.757Z,2.47
2018-09-18T13:51:07.191Z,2.90
2018-09-18T13:53:34.732Z,2.50
2018-09-18T13:56:02.339Z,2.40
2018-09-18T13:58:29.812Z,2.50
2018-09-18T14:00:57.277Z,2.30
2018-09-18T14:03:24.734Z,2.93
2018-09-18T14:05:52.273Z,2.60
2018-09-18T14:08:19.809Z,2.27
2018-09-18T14:10:47.403Z,2.67
2018-09-18T14:13:15.021Z,2.50
2018-09-18T14:15:42.428Z,2.60
2018-09-18T14:18:09.926Z,2.50
2018-09-18T14:20:37.345Z,2.80
2018-09-18T14:23:04.812Z,2.33
2018-09-18T14:25:32.351Z,2.60
2018-09-18T14:27:59.818Z,2.70
2018-09-18T14:30:27.290Z,2.43
2018-09-18T14:32:54.888Z,2.60
2018-09-18T14:35:22.381Z,2.60
2018-09-18T14:37:49.888Z,2.63
2018-09-18T14:40:17.426Z,2.87
2018-09-18T14:42:44.814Z,2.60
2018-09-18T14:45:12.297Z,2.50
2018-09-18T14:47:39.827Z,2.70
2018-09-18T14:50:07.297Z,2.80
2018-09-18T14:52:34.743Z,2.50
2018-09-18T14:55:02.228Z,2.80
2018-09-18T14:57:29.892Z,2.73
2018-09-18T14:59:57.480Z,2.90
2018-09-18T15:02:25.160Z,2.80
2018-09-18T15:04:52.668Z,3.00
2018-09-18T15:07:20.111Z,2.43
2018-09-18T15:09:47.572Z,2.73
2018-09-18T15:12:14.993Z,2.93
2018-09-18T15:14:42.465Z,2.90
2018-09-18T15:17:09.854Z,2.83
2018-09-18T15:19:37.309Z,2.53
2018-09-18T15:22:05.090Z,2.80
2018-09-18T15:24:32.523Z,3.10
2018-09-18T15:26:59.941Z,2.90
2018-09-18T15:29:27.368Z,2.73
2018-09-18T15:31:54.800Z,2.60
2018-09-18T15:34:22.317Z,2.90
2018-09-18T15:36:49.745Z,2.90
2018-09-18T15:39:17.145Z,2.60
2018-09-18T15:41:44.638Z,3.00
2018-09-18T15:44:12.258Z,2.80
2018-09-18T15:46:39.743Z,2.93
2018-09-18T15:49:07.148Z,2.87
2018-09-18T15:51:34.747Z,2.73
2018-09-18T15:54:02.180Z,2.70
2018-09-18T15:56:29.758Z,2.90
2018-09-18T15:58:57.289Z,2.90
2018-09-18T16:01:24.769Z,3.17
2018-09-18T16:03:52.284Z,2.90
2018-09-18T16:06:19.642Z,2.93
2018-09-18T16:08:47.093Z,2.80
2018-09-18T16:11:14.510Z,3.40
2018-09-18T16:13:42.012Z,2.80
2018-09-18T16:16:09.568Z,2.93
2018-09-18T16:18:36.965Z,2.80
2018-09-18T16:21:04.496Z,2.90
2018-09-18T16:23:31.889Z,2.97
2018-09-18T16:25:59.336Z,3.37
2018-09-18T16:28:26.797Z,3.00
2018-09-18T16:30:54.239Z,3.03
2018-09-18T16:33:21.695Z,2.87
2018-09-18T16:35:49.194Z,3.33
2018-09-18T16:38:17.001Z,2.90
2018-09-18T16:40:44.554Z,2.90
2018-09-18T16:43:11.939Z,3.03
2018-09-18T16:45:39.507Z,3.20
2018-09-18T16:48:06.980Z,3.13
2018-09-18T16:50:34.380Z,3.40
2018-09-18T16:53:01.821Z,3.10
2018-09-18T16:55:29.248Z,3.50
2018-09-18T16:57:56.767Z,3.10
2018-09-18T17:00:24.410Z,3.10
2018-09-18T17:02:51.991Z,3.00
2018-09-18T17:05:19.454Z,3.20
2018-09-18T17:07:47.022Z,3.10
2018-09-18T17:10:14.546Z,3.20
2018-09-18T17:12:41.953Z,3.27
2018-09-18T17:15:09.532Z,3.30
2018-09-18T17:17:36.958Z,3.23
2018-09-18T17:20:04.438Z,3.10
2018-09-18T17:22:32.061Z,3.20
2018-09-18T17:24:59.511Z,3.13
2018-09-18T17:27:27.016Z,3.13
2018-09-18T17:29:54.554Z,3.13
2018-09-18T17:32:21.989Z,3.30
2018-09-18T17:34:49.434Z,3.37
2018-09-18T17:37:16.916Z,3.33
2018-09-18T17:39:44.397Z,3.40
2018-09-18T17:42:11.826Z,3.60
2018-09-18T17:44:39.243Z,3.57
2018-09-18T17:47:06.708Z,3.73
2018-09-18T17:49:34.150Z,3.80
2018-09-18T17:52:01.549Z,3.53
2018-09-18T17:54:29.031Z,3.50
2018-09-18T17:56:56.826Z,3.80
2018-09-18T17:59:24.298Z,3.60
2018-09-18T18:01:51.813Z,3.73
2018-09-18T18:04:19.328Z,3.80
2018-09-18T18:06:46.736Z,3.50
2018-09-18T18:09:14.230Z,3.70
2018-09-18T18:11:41.757Z,4.10
2018-09-18T18:14:09.176Z,3.90
2018-09-18T18:16:36.665Z,4.20
2018-09-18T18:19:04.145Z,4.20
2018-09-18T18:21:31.544Z,4.33
2018-09-18T18:23:59.150Z,4.10
2018-09-18T18:26:26.662Z,4.43
2018-09-18T18:28:54.028Z,4.43
2018-09-18T18:31:21.467Z,4.60
2018-09-18T18:33:48.870Z,4.30
2018-09-18T18:36:16.260Z,4.33
2018-09-18T18:38:43.692Z,4.70
2018-09-18T18:41:11.117Z,5.10
2018-09-18T18:43:38.503Z,4.83
2018-09-18T18:46:06.004Z,4.33
2018-09-18T18:48:33.457Z,4.67
2018-09-18T18:51:00.840Z,4.67
2018-09-18T18:53:28.282Z,4.77
2018-09-18T18:55:55.710Z,5.47
2018-09-18T18:58:23.209Z,5.50
2018-09-18T19:00:50.638Z,4.57
2018-09-18T19:03:18.070Z,5.10
2018-09-18T19:05:45.523Z,4.73
2018-09-18T19:08:12.927Z,5.30
2018-09-18T19:10:40.334Z,5.03
2018-09-18T19:13:07.871Z,5.70
2018-09-18T19:15:35.358Z,5.47
2018-09-18T19:18:02.835Z,5.60
2018-09-18T19:20:30.277Z,6.30
2018-09-18T19:22:57.719Z,6.10
2018-09-18T19:25:25.204Z,5.97
2018-09-18T19:27:52.642Z,6.03
2018-09-18T19:30:20.484Z,6.37
2018-09-18T19:32:48.015Z,6.67
2018-09-18T19:35:15.405Z,6.40
2018-09-18T19:37:42.851Z,6.50
2018-09-18T19:40:10.247Z,6.60
2018-09-18T19:42:37.752Z,7.23
2018-09-18T19:45:05.248Z,7.27
2018-09-18T19:47:32.664Z,6.63
2018-09-18T19:50:00.275Z,7.07
2018-09-18T19:52:27.859Z,7.00
2018-09-18T19:54:55.130Z,6.80
2018-09-18T19:57:22.589Z,7.67
2018-09-18T19:59:50.009Z,7.17
2018-09-18T20:02:17.394Z,7.20
2018-09-18T20:04:44.847Z,6.97
2018-09-18T20:07:12.318Z,7.03
2018-09-18T20:09:39.778Z,7.13
2018-09-18T20:12:07.261Z,7.50
2018-09-18T20:14:34.707Z,7.50
2018-09-18T20:17:02.194Z,7.50
2018-09-18T20:19:29.648Z,7.43
2018-09-18T20:21:57.121Z,7.40
2018-09-18T20:24:24.582Z,8.13
2018-09-18T20:26:52.079Z,7.00
2018-09-18T20:29:19.520Z,7.23
2018-09-18T20:31:47.028Z,7.60
2018-09-18T20:34:14.430Z,8.53
2018-09-18T20:36:41.819Z,8.87
2018-09-18T20:39:10.536Z,9.67
2018-09-18T20:41:38.045Z,10.50
2018-09-18T20:44:05.587Z,10.37
2018-09-18T20:46:33.041Z,9.50
2018-09-18T20:49:00.763Z,9.43
2018-09-18T20:51:28.225Z,9.43
2018-09-18T20:53:55.673Z,8.90
2018-09-18T20:56:23.146Z,9.63
2018-09-18T20:58:50.556Z,10.10
2018-09-18T21:01:18.047Z,9.50
2018-09-18T21:03:45.638Z,9.90
2018-09-18T21:06:13.111Z,10.13
2018-09-18T21:08:40.532Z,9.70
2018-09-18T21:11:07.987Z,8.53
2018-09-18T21:13:35.370Z,9.40
2018-09-18T21:16:02.853Z,8.70
2018-09-18T21:18:30.457Z,8.57
2018-09-18T21:20:58.042Z,8.87
2018-09-18T21:23:25.395Z,9.27
2018-09-18T21:26:01.060Z,9.23
2018-09-18T21:28:28.496Z,9.50
2018-09-18T21:30:55.879Z,10.20
2018-09-18T21:33:23.309Z,10.10
2018-09-18T21:35:50.745Z,9.17
2018-09-18T21:38:18.141Z,9.37
2018-09-18T21:40:45.670Z,8.97
2018-09-18T21:43:13.275Z,9.90
2018-09-18T21:45:40.702Z,9.93
2018-09-18T21:48:08.666Z,8.80
2018-09-18T21:50:38.733Z,9.60
2018-09-18T21:53:08.015Z,9.40
2018-09-18T21:55:35.762Z,9.97
2018-09-18T21:58:03.591Z,10.13
2018-09-18T22:00:31.101Z,10.43
2018-09-18T22:02:59.571Z,9.80
2018-09-18T22:05:27.104Z,10.37
2018-09-18T22:07:54.512Z,10.63
2018-09-18T22:10:21.968Z,10.87
2018-09-18T22:12:49.429Z,11.07
2018-09-18T22:15:16.943Z,10.50
2018-09-18T22:17:44.413Z,10.43
2018-09-18T22:20:11.893Z,9.63
2018-09-18T22:22:39.322Z,9.93
2018-09-18T22:25:06.858Z,9.70
2018-09-18T22:27:34.245Z,8.50
2018-09-18T22:30:01.849Z,9.67
2018-09-18T22:32:29.291Z,10.20
2018-09-18T22:34:56.764Z,10.57
2018-09-18T22:37:24.348Z,10.20
2018-09-18T22:39:51.778Z,10.50
2018-09-18T22:42:19.225Z,11.17
2018-09-18T22:44:46.659Z,9.50
2018-09-18T22:47:14.077Z,11.23
2018-09-18T22:49:41.449Z,11.53
2018-09-18T22:52:08.912Z,10.10
2018-09-18T22:54:36.376Z,10.30
2018-09-18T22:57:03.910Z,12.10
2018-09-18T22:59:31.375Z,9.50
2018-09-18T23:01:58.814Z,10.20
2018-09-18T23:04:26.259Z,10.63
2018-09-18T23:06:53.681Z,11.47
2018-09-18T23:09:21.142Z,11.27
2018-09-18T23:11:48.564Z,11.30
2018-09-18T23:14:16.020Z,11.00
2018-09-18T23:16:43.629Z,10.27
2018-09-18T23:19:11.044Z,9.23
2018-09-18T23:21:38.490Z,12.00
2018-09-18T23:24:06.046Z,11.77
2018-09-18T23:26:33.477Z,11.20
2018-09-18T23:29:00.924Z,9.57
2018-09-18T23:31:28.325Z,9.87
2018-09-18T23:33:55.721Z,10.17
2018-09-18T23:36:23.193Z,9.97
2018-09-18T23:38:50.635Z,9.67
2018-09-18T23:41:18.098Z,9.87
2018-09-18T23:43:45.499Z,10.83
2018-09-18T23:46:12.938Z,10.97
2018-09-18T23:48:40.372Z,12.70
2018-09-18T23:51:07.860Z,12.23
2018-09-18T23:53:35.655Z,11.23
2018-09-18T23:56:03.163Z,12.50
2018-09-18T23:58:30.603Z,12.20
